Time;durP1;ratioP1;P1;durP2;ratioP2;P2;SDS_P1;SDS_P2;PMS_P1;PMS_P2;Temp;Humidity;BMP_temperature;BMP_pressure;BME280_temperature;BME280_humidity;BME280_pressure;Samples;Min_cycle;Max_cycle;Signal;HPM_P1;HPM_P2
2022/01/08 00:00:45;;;;;;;3.50;2.30;;;-0.70;99.90;;;;;;2115125;28;20182;-70
2022/01/08 00:01:46;;;;;;;4.70;2.40;;;-0.70;99.90;;;;;;2114270;28;20209;-71
2022/01/08 00:02:48;;;;;;;3.00;2.20;;;-0.70;99.90;;;;;;2114473;28;20182;-70
2022/01/08 00:03:51;;;;;;;3.92;2.65;;;-0.60;99.90;;;;;;2115300;28;20206;-70
2022/01/08 00:04:52;;;;;;;5.55;2.80;;;-0.70;99.90;;;;;;2114879;28;20669;-69
2022/01/08 00:05:56;;;;;;;3.20;2.30;;;-0.70;99.90;;;;;;2115227;28;20197;-70
2022/01/08 00:06:57;;;;;;;4.05;2.40;;;-0.70;99.90;;;;;;2115023;28;20181;-69
2022/01/08 00:07:58;;;;;;;6.10;3.10;;;-0.70;99.90;;;;;;2115044;28;20558;-68
2022/01/08 00:08:58;;;;;;;3.70;2.60;;;-0.70;99.90;;;;;;2115175;28;20174;-69
2022/01/08 00:09:59;;;;;;;3.50;2.27;;;-0.70;99.90;;;;;;2115135;28;20174;-70
2022/01/08 00:11:00;;;;;;;4.73;2.27;;;-0.70;99.90;;;;;;2114310;28;20182;-69
2022/01/08 00:12:01;;;;;;;3.65;2.38;;;-0.70;99.90;;;;;;2106185;28;20684;-69
2022/01/08 00:13:04;;;;;;;3.20;2.43;;;-0.70;99.90;;;;;;2114440;28;20206;-70
2022/01/08 00:14:06;;;;;;;3.67;2.60;;;-0.70;99.90;;;;;;2114409;28;20178;-69
2022/01/08 00:15:07;;;;;;;5.93;2.20;;;-0.70;99.90;;;;;;2114037;28;20193;-69
2022/01/08 00:16:08;;;;;;;3.72;2.22;;;-0.70;99.90;;;;;;2115023;28;20608;-70
2022/01/08 00:17:09;;;;;;;4.57;2.30;;;-0.70;99.90;;;;;;2114660;27;20190;-69
2022/01/08 00:18:09;;;;;;;7.70;2.53;;;-0.70;99.90;;;;;;2110877;28;20190;-69
2022/01/08 00:19:10;;;;;;;4.20;2.27;;;-0.70;99.90;;;;;;2106679;28;20182;-70
2022/01/08 00:20:11;;;;;;;4.00;2.80;;;-0.70;99.90;;;;;;2106602;28;20244;-70
2022/01/08 00:21:13;;;;;;;9.30;2.65;;;-0.70;99.90;;;;;;2105748;28;20292;-69
2022/01/08 00:22:14;;;;;;;7.57;2.60;;;-0.70;99.90;;;;;;2105979;28;20203;-71
2022/01/08 00:23:14;;;;;;;3.30;2.30;;;-0.60;99.90;;;;;;2106549;28;20175;-69
2022/01/08 00:24:15;;;;;;;4.77;1.93;;;-0.60;99.90;;;;;;2106564;28;20698;-70
2022/01/08 00:25:16;;;;;;;3.42;2.58;;;-0.60;99.90;;;;;;2106378;28;20206;-70
2022/01/08 00:26:17;;;;;;;3.65;2.30;;;-0.60;99.90;;;;;;2106605;28;20224;-70
2022/01/08 00:27:22;;;;;;;2.43;2.00;;;-0.60;99.90;;;;;;2106456;28;20646;-70
2022/01/08 00:28:23;;;;;;;3.90;2.38;;;-0.70;99.90;;;;;;2105803;28;20198;-70
2022/01/08 00:29:24;;;;;;;3.47;2.17;;;-0.70;99.90;;;;;;2105988;28;20262;-69
2022/01/08 00:30:24;;;;;;;7.37;2.93;;;-0.70;99.90;;;;;;2106664;28;20656;-69
2022/01/08 00:31:25;;;;;;;4.80;2.97;;;-0.70;99.90;;;;;;2106655;28;20175;-69
2022/01/08 00:32:26;;;;;;;4.13;2.53;;;-0.70;99.90;;;;;;2106519;28;20582;-69
2022/01/08 00:33:26;;;;;;;7.80;2.77;;;-0.70;99.90;;;;;;2106581;28;20554;-70
2022/01/08 00:34:27;;;;;;;3.90;2.73;;;-0.60;99.90;;;;;;2106566;28;20831;-70
2022/01/08 00:35:29;;;;;;;5.57;2.75;;;-0.60;99.90;;;;;;2106669;28;20182;-70
2022/01/08 00:36:30;;;;;;;4.15;2.90;;;-0.60;99.90;;;;;;2106023;28;20672;-69
2022/01/08 00:37:31;;;;;;;5.03;3.00;;;-0.60;99.90;;;;;;2105986;28;20190;-70
2022/01/08 00:38:31;;;;;;;5.57;2.90;;;-0.60;99.90;;;;;;2106570;28;20182;-70
2022/01/08 00:39:33;;;;;;;5.37;3.10;;;-0.60;99.90;;;;;;2106008;28;20179;-70
2022/01/08 00:40:34;;;;;;;9.73;3.00;;;-0.60;99.90;;;;;;2106036;28;20185;-70
2022/01/08 00:41:35;;;;;;;5.30;3.10;;;-0.60;99.90;;;;;;2106578;28;20205;-70
2022/01/08 00:42:36;;;;;;;4.63;2.87;;;-0.60;99.90;;;;;;2106582;28;20206;-70
2022/01/08 00:43:37;;;;;;;5.60;3.10;;;-0.60;99.90;;;;;;2106609;28;20265;-70
2022/01/08 00:44:38;;;;;;;7.67;3.73;;;-0.60;99.90;;;;;;2106367;28;20189;-70
2022/01/08 00:45:38;;;;;;;6.20;4.30;;;-0.60;99.90;;;;;;2106716;28;20187;-70
2022/01/08 00:46:40;;;;;;;7.23;4.10;;;-0.60;99.90;;;;;;2106436;28;20650;-70
2022/01/08 00:47:40;;;;;;;5.82;3.40;;;-0.70;99.90;;;;;;2105894;28;20605;-70
2022/01/08 00:48:41;;;;;;;7.37;3.60;;;-0.60;99.90;;;;;;2105782;28;20242;-70
2022/01/08 00:49:42;;;;;;;4.35;2.85;;;-0.60;99.90;;;;;;2106360;28;20680;-70
2022/01/08 00:50:43;;;;;;;4.30;2.80;;;-0.60;99.90;;;;;;2105980;28;20186;-70
2022/01/08 00:51:44;;;;;;;5.50;2.87;;;-0.60;99.90;;;;;;2105823;28;20171;-70
2022/01/08 00:52:44;;;;;;;5.20;3.00;;;-0.60;99.90;;;;;;2105844;28;20183;-70
2022/01/08 00:53:45;;;;;;;7.00;3.30;;;-0.60;99.90;;;;;;2106382;28;20691;-70
2022/01/08 00:54:46;;;;;;;5.67;3.43;;;-0.60;99.90;;;;;;2106177;28;20588;-70
2022/01/08 00:55:47;;;;;;;5.40;3.27;;;-0.60;99.90;;;;;;2106292;28;20178;-70
2022/01/08 00:56:48;;;;;;;4.60;2.67;;;-0.60;99.90;;;;;;2105827;28;20179;-70
2022/01/08 00:57:49;;;;;;;5.03;3.17;;;-0.60;99.90;;;;;;2105930;28;20351;-69
2022/01/08 00:58:49;;;;;;;4.63;2.80;;;-0.60;99.90;;;;;;2106333;28;20195;-70
2022/01/08 00:59:50;;;;;;;5.10;2.90;;;-0.60;99.90;;;;;;2105738;28;20672;-70
2022/01/08 01:00:51;;;;;;;3.60;2.83;;;-0.60;99.90;;;;;;2097394;28;20284;-70
2022/01/08 01:01:51;;;;;;;5.13;2.83;;;-0.60;99.90;;;;;;2097403;28;20199;-70
2022/01/08 01:02:53;;;;;;;4.10;2.60;;;-0.60;99.90;;;;;;2097302;28;20785;-70
2022/01/08 01:03:54;;;;;;;5.97;3.28;;;-0.50;99.90;;;;;;2105898;28;20187;-71
2022/01/08 01:04:55;;;;;;;3.23;2.33;;;-0.50;99.90;;;;;;2106148;28;20179;-70
2022/01/08 01:05:55;;;;;;;5.67;2.80;;;-0.60;99.90;;;;;;2105575;28;20220;-69
2022/01/08 01:06:56;;;;;;;3.27;2.13;;;-0.50;99.90;;;;;;2105606;28;20563;-70
2022/01/08 01:07:57;;;;;;;3.77;2.50;;;-0.50;99.90;;;;;;2106265;28;20178;-70
2022/01/08 01:08:58;;;;;;;4.00;2.47;;;-0.50;99.90;;;;;;2106243;28;20183;-70
2022/01/08 01:09:58;;;;;;;3.93;2.50;;;-0.50;99.90;;;;;;2106323;28;20717;-70
2022/01/08 01:10:59;;;;;;;4.47;2.43;;;-0.50;99.90;;;;;;2105682;28;20548;-70
2022/01/08 01:12:00;;;;;;;3.87;2.40;;;-0.50;99.90;;;;;;2105636;28;20222;-73
2022/01/08 01:13:01;;;;;;;4.67;2.20;;;-0.50;99.90;;;;;;2106374;28;20171;-70
2022/01/08 01:14:01;;;;;;;3.07;2.40;;;-0.50;99.90;;;;;;2106228;28;20171;-70
2022/01/08 01:15:04;;;;;;;4.17;2.40;;;-0.50;99.90;;;;;;2106202;28;20622;-70
2022/01/08 01:16:05;;;;;;;4.20;2.25;;;-0.50;99.90;;;;;;2105592;28;20676;-70
2022/01/08 01:17:05;;;;;;;2.77;1.97;;;-0.50;99.90;;;;;;2105543;28;20179;-70
2022/01/08 01:18:08;;;;;;;3.33;2.33;;;-0.50;99.90;;;;;;2106268;28;20194;-70
2022/01/08 01:19:08;;;;;;;4.80;2.92;;;-0.50;99.90;;;;;;2106267;28;20175;-70
2022/01/08 01:20:13;;;;;;;4.13;2.17;;;-0.40;99.90;;;;;;2106355;28;20167;-70
2022/01/08 01:21:14;;;;;;;2.67;2.28;;;-0.40;99.90;;;;;;2105753;28;20171;-70
2022/01/08 01:22:18;;;;;;;6.07;2.30;;;-0.40;99.90;;;;;;2105418;28;20681;-70
2022/01/08 01:23:26;;;;;;;4.72;2.00;;;-0.50;99.90;;;;;;2105700;28;20214;-71
2022/01/08 01:24:28;;;;;;;2.95;2.20;;;-0.60;99.90;;;;;;2098740;28;20609;-72
2022/01/08 01:25:35;;;;;;;3.80;2.35;;;-0.60;99.90;;;;;;2105596;28;20183;-70
2022/01/08 01:26:38;;;;;;;3.03;2.17;;;-0.60;99.90;;;;;;2105802;28;20355;-70
2022/01/08 01:30:02;;;;;;;3.30;2.17;;;-0.50;99.90;;;;;;2106854;28;20171;-70
2022/01/08 01:41:45;;;;;;;4.93;1.40;;;-0.20;99.90;;;;;;2107542;28;20167;-70
2022/01/08 01:43:20;;;;;;;2.58;1.50;;;-0.20;99.90;;;;;;2107859;28;20170;-70
2022/01/08 01:47:01;;;;;;;1.75;1.38;;;-0.20;99.90;;;;;;2107159;28;20159;-70
2022/01/08 01:48:01;;;;;;;2.42;1.45;;;-0.20;99.90;;;;;;2107311;28;20191;-70
2022/01/08 01:49:03;;;;;;;2.73;1.50;;;-0.20;99.90;;;;;;2107090;28;20163;-70
2022/01/08 01:50:07;;;;;;;3.05;1.40;;;-0.30;99.90;;;;;;2099137;28;20586;-70
2022/01/08 01:51:07;;;;;;;2.60;1.30;;;-0.20;99.90;;;;;;2107251;28;20210;-70
2022/01/08 01:52:12;;;;;;;3.37;1.73;;;-0.20;99.90;;;;;;2107198;28;20274;-70
2022/01/08 01:53:14;;;;;;;9.52;3.30;;;-0.20;99.90;;;;;;2107167;28;20167;-70
2022/01/08 01:54:15;;;;;;;4.18;1.88;;;-0.10;99.90;;;;;;2107173;28;20235;-70
2022/01/08 01:55:16;;;;;;;2.77;1.57;;;-0.20;99.90;;;;;;2107528;28;20582;-70
2022/01/08 01:56:19;;;;;;;4.03;1.30;;;-0.20;99.90;;;;;;2107094;28;20297;-70
2022/01/08 01:57:20;;;;;;;6.00;2.33;;;-0.20;99.90;;;;;;2098936;28;20172;-70
2022/01/08 01:58:21;;;;;;;2.33;1.65;;;-0.10;99.90;;;;;;2107248;28;20258;-70
2022/01/08 01:59:22;;;;;;;2.27;1.50;;;-0.10;99.90;;;;;;2106963;28;20186;-70
2022/01/08 02:00:23;;;;;;;2.25;1.15;;;-0.10;99.90;;;;;;2098831;28;20426;-69
2022/01/08 02:01:24;;;;;;;2.63;1.20;;;-0.10;99.90;;;;;;2107154;28;20210;-70
2022/01/08 02:02:24;;;;;;;1.60;1.20;;;-0.10;99.90;;;;;;2107218;28;20198;-70
2022/01/08 02:03:25;;;;;;;2.40;1.40;;;-0.10;99.90;;;;;;2107083;28;20187;-70
2022/01/08 02:04:26;;;;;;;1.80;1.20;;;-0.10;99.90;;;;;;2107191;28;20187;-70
2022/01/08 02:05:28;;;;;;;2.58;1.20;;;-0.10;99.90;;;;;;2106673;28;20212;-70
2022/01/08 02:06:28;;;;;;;1.95;1.23;;;-0.10;99.90;;;;;;2098863;28;20689;-70
2022/01/08 02:07:29;;;;;;;2.07;1.30;;;-0.10;99.90;;;;;;2106841;28;20190;-70
2022/01/08 02:08:30;;;;;;;2.65;1.33;;;-0.10;99.90;;;;;;2107531;28;20700;-70
2022/01/08 02:09:33;;;;;;;3.43;1.50;;;-0.20;99.90;;;;;;2107663;28;20198;-70
2022/01/08 02:10:34;;;;;;;2.65;1.50;;;-0.10;99.90;;;;;;2106989;28;20725;-70
2022/01/08 02:12:16;;;;;;;1.77;1.20;;;-0.10;99.90;;;;;;2107018;28;20250;-70
2022/01/08 02:13:28;;;;;;;2.58;1.50;;;-0.10;99.90;;;;;;2107113;28;20159;-70
2022/01/08 02:14:32;;;;;;;2.53;1.10;;;-0.10;99.90;;;;;;2106965;28;20553;-70
2022/01/08 02:15:33;;;;;;;1.38;0.95;;;-0.10;99.90;;;;;;2107034;28;20193;-70
2022/01/08 02:16:34;;;;;;;2.17;1.10;;;-0.10;99.90;;;;;;2098531;28;20682;-71
2022/01/08 02:17:34;;;;;;;3.53;1.20;;;0.00;99.90;;;;;;2098450;28;20564;-69
2022/01/08 02:18:35;;;;;;;1.33;1.07;;;0.00;99.90;;;;;;2106990;28;20248;-70
2022/01/08 02:19:38;;;;;;;2.10;1.27;;;0.00;99.90;;;;;;2107003;28;20179;-70
2022/01/08 02:20:39;;;;;;;1.77;1.00;;;-0.10;99.90;;;;;;2114340;28;20179;-70
2022/01/08 02:21:59;;;;;;;1.30;1.00;;;-0.10;99.90;;;;;;2110385;28;20179;-70
2022/01/08 02:22:59;;;;;;;2.88;1.30;;;-0.10;99.90;;;;;;2107012;28;20168;-70
2022/01/08 02:24:00;;;;;;;2.57;1.37;;;-0.10;99.90;;;;;;2106851;28;20183;-70
2022/01/08 02:25:01;;;;;;;1.13;1.00;;;-0.10;99.90;;;;;;2106783;28;20661;-71
2022/01/08 02:26:08;;;;;;;1.10;0.80;;;-0.10;99.90;;;;;;2107552;28;20542;-70
2022/01/08 02:27:09;;;;;;;1.90;0.90;;;-0.10;99.90;;;;;;2106866;28;20171;-71
2022/01/08 02:28:10;;;;;;;0.80;0.70;;;-0.10;99.90;;;;;;2106801;28;20213;-70
2022/01/08 02:29:16;;;;;;;0.60;0.60;;;-0.10;99.90;;;;;;2107410;28;20194;-70
2022/01/08 02:30:18;;;;;;;1.17;0.47;;;0.00;99.90;;;;;;2106940;28;20152;-70
2022/01/08 02:31:23;;;;;;;1.77;0.70;;;0.10;99.90;;;;;;2106834;28;20171;-70
2022/01/08 02:32:28;;;;;;;1.10;1.00;;;0.10;99.90;;;;;;2106732;28;20217;-70
2022/01/08 02:33:29;;;;;;;0.98;0.73;;;0.20;99.90;;;;;;2099213;28;20551;-70
2022/01/08 02:34:30;;;;;;;0.43;0.40;;;0.20;99.90;;;;;;2106627;28;20187;-69
2022/01/08 02:35:31;;;;;;;0.68;0.40;;;0.30;99.90;;;;;;2106861;28;20202;-70
2022/01/08 02:36:34;;;;;;;0.40;0.30;;;0.40;99.90;;;;;;2106783;28;20183;-70
2022/01/08 02:37:35;;;;;;;0.30;0.30;;;0.50;99.90;;;;;;2098831;28;20183;-69
2022/01/08 02:38:35;;;;;;;0.40;0.40;;;0.50;99.90;;;;;;2106873;28;20237;-70
2022/01/08 02:39:41;;;;;;;0.30;0.30;;;0.60;99.90;;;;;;2107448;28;20672;-70
2022/01/08 02:40:51;;;;;;;0.50;0.50;;;0.60;99.90;;;;;;2106536;28;20741;-70
2022/01/08 02:41:58;;;;;;;0.50;0.30;;;0.70;99.90;;;;;;2106993;28;20282;-69
2022/01/08 02:43:04;;;;;;;0.20;0.20;;;0.70;99.90;;;;;;2107428;28;20170;-70
2022/01/08 02:44:06;;;;;;;0.20;0.20;;;0.80;99.90;;;;;;2107467;28;20246;-70
2022/01/08 02:45:08;;;;;;;0.30;0.30;;;0.80;99.90;;;;;;2106633;28;20182;-70
2022/01/08 02:46:08;;;;;;;0.40;0.25;;;0.80;99.90;;;;;;2106796;28;20221;-70
2022/01/08 02:47:12;;;;;;;0.10;0.10;;;0.80;99.90;;;;;;2107394;28;20183;-70
2022/01/08 02:48:13;;;;;;;0.28;0.28;;;0.80;99.90;;;;;;2106721;28;20650;-70
2022/01/08 02:49:14;;;;;;;0.40;0.30;;;0.80;99.90;;;;;;2106754;28;20167;-70
2022/01/08 02:50:16;;;;;;;0.10;0.10;;;0.80;99.90;;;;;;2106882;28;20179;-70
2022/01/08 02:51:16;;;;;;;0.47;0.30;;;0.80;99.90;;;;;;2106715;28;20179;-70
2022/01/08 02:52:17;;;;;;;0.10;0.10;;;0.80;99.90;;;;;;2107365;28;20187;-71
2022/01/08 02:53:18;;;;;;;0.30;0.20;;;0.90;99.90;;;;;;2106668;28;20175;-70
2022/01/08 02:54:19;;;;;;;0.27;0.20;;;0.80;99.90;;;;;;2106713;28;20183;-70
2022/01/08 02:55:21;;;;;;;0.20;0.20;;;0.90;99.90;;;;;;2106497;28;20175;-71
2022/01/08 02:56:21;;;;;;;0.20;0.20;;;0.90;99.90;;;;;;2107259;28;20713;-70
2022/01/08 02:57:22;;;;;;;0.20;0.20;;;0.90;99.90;;;;;;2107279;28;20175;-70
2022/01/08 02:58:26;;;;;;;0.30;0.30;;;0.90;99.90;;;;;;2098286;28;20194;-70
2022/01/08 02:59:26;;;;;;;0.90;0.20;;;0.90;99.90;;;;;;2098641;28;20176;-70
2022/01/08 03:00:27;;;;;;;0.20;0.20;;;0.90;99.90;;;;;;2106750;28;20557;-70
2022/01/08 03:01:28;;;;;;;0.20;0.20;;;0.90;99.90;;;;;;2106659;28;20211;-70
2022/01/08 03:02:28;;;;;;;0.23;0.20;;;0.90;99.90;;;;;;2107290;28;20214;-70
2022/01/08 03:03:29;;;;;;;0.10;0.10;;;0.90;99.90;;;;;;2107023;28;20205;-71
2022/01/08 03:04:30;;;;;;;0.20;0.20;;;0.90;99.90;;;;;;2106941;28;20264;-70
2022/01/08 03:05:30;;;;;;;0.30;0.30;;;0.90;99.90;;;;;;2107249;28;20649;-70
2022/01/08 03:06:32;;;;;;;0.33;0.33;;;0.90;99.90;;;;;;2106522;28;20272;-70
2022/01/08 03:07:33;;;;;;;0.57;0.30;;;0.90;99.90;;;;;;2089645;28;20214;-70
2022/01/08 03:08:33;;;;;;;0.73;0.33;;;0.90;99.90;;;;;;2098057;28;20609;-70
2022/01/08 03:09:39;;;;;;;0.30;0.27;;;0.90;99.90;;;;;;2106995;28;20176;-70
2022/01/08 03:10:40;;;;;;;0.30;0.28;;;0.90;99.90;;;;;;2107024;28;20183;-70
2022/01/08 03:11:43;;;;;;;0.30;0.30;;;0.90;99.90;;;;;;2106957;28;20183;-70
2022/01/08 03:12:45;;;;;;;0.30;0.30;;;0.90;99.90;;;;;;2107003;28;20197;-70
2022/01/08 03:13:45;;;;;;;0.20;0.20;;;0.90;99.90;;;;;;2106491;28;20320;-70
2022/01/08 03:14:46;;;;;;;0.10;0.10;;;0.90;99.90;;;;;;2106168;28;20645;-70
2022/01/08 03:15:46;;;;;;;0.30;0.30;;;0.90;99.90;;;;;;2089822;28;20225;-70
2022/01/08 03:16:47;;;;;;;0.33;0.30;;;0.90;99.90;;;;;;2098025;28;20175;-70
2022/01/08 03:17:49;;;;;;;0.20;0.20;;;0.90;99.90;;;;;;2106959;28;20676;-70
2022/01/08 03:18:50;;;;;;;0.25;0.25;;;0.90;99.90;;;;;;2106464;28;20186;-70
2022/01/08 03:19:52;;;;;;;0.27;0.27;;;0.90;99.90;;;;;;2106334;28;20685;-70
2022/01/08 03:21:01;;;;;;;0.20;0.20;;;0.90;99.90;;;;;;2106302;28;20179;-70
2022/01/08 03:22:04;;;;;;;0.10;0.10;;;0.90;99.90;;;;;;2106383;28;20195;-70
2022/01/08 03:23:13;;;;;;;1.23;0.38;;;0.90;99.90;;;;;;2106197;28;20553;-70
2022/01/08 03:24:17;;;;;;;0.38;0.38;;;0.80;99.90;;;;;;2106307;28;20176;-70
2022/01/08 03:25:18;;;;;;;0.80;0.20;;;0.80;99.90;;;;;;2099137;28;20195;-70
2022/01/08 03:26:22;;;;;;;0.25;0.25;;;0.80;99.90;;;;;;2106277;28;20564;-70
2022/01/08 03:27:23;;;;;;;0.60;0.30;;;0.80;99.90;;;;;;2106687;28;20629;-70
2022/01/08 03:28:23;;;;;;;0.30;0.30;;;0.80;99.90;;;;;;2106824;28;20203;-70
2022/01/08 03:29:26;;;;;;;0.27;0.27;;;0.80;99.90;;;;;;2106815;28;20179;-71
2022/01/08 03:30:28;;;;;;;0.32;0.30;;;0.90;99.90;;;;;;2106144;28;20182;-70
2022/01/08 03:31:29;;;;;;;0.30;0.30;;;0.90;99.50;;;;;;2106136;28;20183;-71
2022/01/08 03:32:29;;;;;;;0.40;0.40;;;0.90;99.40;;;;;;2106794;28;20180;-71
2022/01/08 03:33:30;;;;;;;0.30;0.30;;;0.90;99.90;;;;;;2106689;28;20186;-71
2022/01/08 03:34:31;;;;;;;0.43;0.40;;;0.90;99.90;;;;;;2106579;28;20175;-71
2022/01/08 03:35:31;;;;;;;0.30;0.30;;;0.90;99.90;;;;;;2106655;28;20262;-71
2022/01/08 03:36:32;;;;;;;0.60;0.40;;;0.90;99.90;;;;;;2106730;28;20181;-69
2022/01/08 03:37:33;;;;;;;0.70;0.53;;;1.00;99.70;;;;;;2106629;28;20179;-70
2022/01/08 03:38:34;;;;;;;0.40;0.40;;;0.90;99.90;;;;;;2106719;28;20194;-70
2022/01/08 03:39:35;;;;;;;0.93;0.40;;;0.90;99.90;;;;;;2105975;28;20286;-70
2022/01/08 03:40:36;;;;;;;1.77;0.30;;;0.90;99.90;;;;;;2106127;28;20194;-70
2022/01/08 03:41:36;;;;;;;1.10;0.33;;;0.90;99.90;;;;;;2106472;28;20175;-70
2022/01/08 03:42:37;;;;;;;0.30;0.30;;;0.90;99.90;;;;;;2106700;28;20183;-70
2022/01/08 03:43:38;;;;;;;0.47;0.47;;;0.90;99.90;;;;;;2106658;28;20171;-70
2022/01/08 03:44:38;;;;;;;0.30;0.30;;;0.90;99.90;;;;;;2105864;28;20186;-70
2022/01/08 03:45:39;;;;;;;0.77;0.60;;;0.90;99.90;;;;;;2106102;28;20205;-70
2022/01/08 03:46:40;;;;;;;0.33;0.30;;;0.90;99.50;;;;;;2106704;28;20586;-70
2022/01/08 03:50:02;;;;;;;0.47;0.40;;;0.90;99.60;;;;;;2106263;28;20252;-70
2022/01/08 03:51:03;;;;;;;0.50;0.40;;;0.90;99.80;;;;;;2106729;28;20201;-69
2022/01/08 03:52:04;;;;;;;0.90;0.40;;;0.90;99.80;;;;;;2105899;28;20191;-70
2022/01/08 03:53:04;;;;;;;1.70;0.67;;;0.90;99.90;;;;;;2106768;28;20179;-70
2022/01/08 03:54:05;;;;;;;0.97;0.50;;;0.90;99.90;;;;;;2106507;28;20591;-70
2022/01/08 03:55:06;;;;;;;1.40;0.40;;;0.80;99.90;;;;;;2105861;28;20270;-70
2022/01/08 03:56:07;;;;;;;0.40;0.40;;;0.80;99.90;;;;;;2105961;28;20185;-70
2022/01/08 03:57:08;;;;;;;0.40;0.40;;;0.70;99.90;;;;;;2105782;28;20842;-70
2022/01/08 03:58:09;;;;;;;1.70;0.50;;;0.70;99.90;;;;;;2105974;28;20696;-70
2022/01/08 03:59:09;;;;;;;0.63;0.47;;;0.60;99.90;;;;;;2105983;28;20175;-70
2022/01/08 04:00:11;;;;;;;0.40;0.30;;;0.50;99.90;;;;;;2105889;28;20225;-70
2022/01/08 04:01:12;;;;;;;0.60;0.50;;;0.50;99.90;;;;;;2106367;28;20182;-70
2022/01/08 04:02:12;;;;;;;2.50;0.80;;;0.50;99.90;;;;;;2106283;28;20191;-70
2022/01/08 04:03:18;;;;;;;0.67;0.50;;;0.50;99.90;;;;;;2106498;28;20529;-70
2022/01/08 04:04:19;;;;;;;0.57;0.57;;;0.40;99.90;;;;;;2106569;28;20187;-70
2022/01/08 04:05:20;;;;;;;0.70;0.50;;;0.40;99.90;;;;;;2105849;28;20179;-70
2022/01/08 04:06:20;;;;;;;2.03;0.50;;;0.40;99.90;;;;;;2106062;28;20199;-70
2022/01/08 04:07:21;;;;;;;0.63;0.60;;;0.40;99.90;;;;;;2106473;28;20670;-70
2022/01/08 04:08:22;;;;;;;0.70;0.50;;;0.40;99.90;;;;;;2105641;28;20794;-70
2022/01/08 04:09:23;;;;;;;0.40;0.40;;;0.40;99.90;;;;;;2106032;28;20605;-70
2022/01/08 04:10:23;;;;;;;0.33;0.33;;;0.40;99.90;;;;;;2105852;28;20190;-70
2022/01/08 04:11:26;;;;;;;0.40;0.40;;;0.40;99.90;;;;;;2106599;28;20625;-70
2022/01/08 04:12:36;;;;;;;1.27;0.45;;;0.40;99.90;;;;;;2113149;28;20305;-70
2022/01/08 04:13:40;;;;;;;0.40;0.40;;;0.40;99.90;;;;;;2107260;28;20170;-70
2022/01/08 04:14:54;;;;;;;0.40;0.40;;;0.40;99.90;;;;;;2107540;28;20673;-70
2022/01/08 04:16:00;;;;;;;0.38;0.35;;;0.40;99.90;;;;;;2114578;28;20170;-70
2022/01/08 04:17:00;;;;;;;0.43;0.40;;;0.50;99.90;;;;;;2114846;28;20174;-70
2022/01/08 04:18:01;;;;;;;1.20;0.60;;;0.50;99.90;;;;;;2113348;28;20194;-70
2022/01/08 04:19:02;;;;;;;0.40;0.40;;;0.40;99.90;;;;;;2107823;28;20182;-70
2022/01/08 04:20:03;;;;;;;0.70;0.50;;;0.50;99.90;;;;;;2106498;28;20175;-70
2022/01/08 04:22:12;;;;;;;1.02;0.38;;;0.50;99.90;;;;;;2105950;28;20708;-70
2022/01/08 04:23:14;;;;;;;0.45;0.30;;;0.50;99.90;;;;;;2105738;28;20171;-70
2022/01/08 04:24:15;;;;;;;0.95;0.47;;;0.50;99.90;;;;;;2106416;28;20197;-69
2022/01/08 04:25:21;;;;;;;0.40;0.40;;;0.40;99.90;;;;;;2106292;28;20179;-70
2022/01/08 04:26:23;;;;;;;0.82;0.50;;;0.40;99.90;;;;;;2097394;28;20583;-70
2022/01/08 04:27:23;;;;;;;0.50;0.38;;;0.50;99.90;;;;;;2105771;28;20182;-70
2022/01/08 04:28:24;;;;;;;0.37;0.30;;;0.50;99.90;;;;;;2105949;28;20233;-70
2022/01/08 04:29:25;;;;;;;0.40;0.30;;;0.40;99.90;;;;;;2106422;28;20842;-70
2022/01/08 04:30:26;;;;;;;0.27;0.27;;;0.40;99.90;;;;;;2106673;28;20667;-70
2022/01/08 04:31:27;;;;;;;0.87;0.53;;;0.40;99.90;;;;;;2105824;28;20179;-70
2022/01/08 04:32:27;;;;;;;0.40;0.40;;;0.40;99.90;;;;;;2105894;28;20778;-71
2022/01/08 04:33:28;;;;;;;0.20;0.20;;;0.40;99.90;;;;;;2106570;28;20179;-70
2022/01/08 04:34:29;;;;;;;0.40;0.40;;;0.50;99.90;;;;;;2106390;28;20179;-70
2022/01/08 04:35:29;;;;;;;0.67;0.50;;;0.50;99.90;;;;;;2106631;28;20200;-70
2022/01/08 04:36:30;;;;;;;0.50;0.40;;;0.50;99.90;;;;;;2106578;28;20167;-70
2022/01/08 04:37:30;;;;;;;0.50;0.40;;;0.40;99.90;;;;;;2105874;28;20189;-70
2022/01/08 04:38:32;;;;;;;0.40;0.40;;;0.40;99.90;;;;;;2105951;28;20658;-70
2022/01/08 04:39:33;;;;;;;0.50;0.50;;;0.40;99.90;;;;;;2105979;28;20195;-70
2022/01/08 04:40:34;;;;;;;0.30;0.30;;;0.40;99.90;;;;;;2106496;28;20183;-70
2022/01/08 04:41:35;;;;;;;1.17;0.40;;;0.40;99.90;;;;;;2105833;28;20179;-70
2022/01/08 04:42:35;;;;;;;0.50;0.50;;;0.30;99.90;;;;;;2105879;28;20194;-70
2022/01/08 04:43:38;;;;;;;1.47;0.60;;;0.30;99.90;;;;;;2106331;28;20266;-70
2022/01/08 04:44:38;;;;;;;1.38;0.70;;;0.30;99.90;;;;;;2106346;28;20175;-70
2022/01/08 04:45:39;;;;;;;0.30;0.30;;;0.30;99.90;;;;;;2106459;28;20179;-70
2022/01/08 04:46:41;;;;;;;0.73;0.30;;;0.30;99.90;;;;;;2106364;28;20182;-70
2022/01/08 04:47:41;;;;;;;1.30;0.20;;;0.30;99.90;;;;;;2106523;28;20190;-69
2022/01/08 04:48:42;;;;;;;0.30;0.30;;;0.30;99.90;;;;;;2106359;28;20289;-70
2022/01/08 04:49:43;;;;;;;0.30;0.30;;;0.30;99.90;;;;;;2106540;28;20204;-70
2022/01/08 04:50:44;;;;;;;0.90;0.57;;;0.30;99.90;;;;;;2106294;28;20182;-70
2022/01/08 04:51:45;;;;;;;0.30;0.30;;;0.20;99.90;;;;;;2106481;28;20183;-70
2022/01/08 04:52:45;;;;;;;0.40;0.40;;;0.20;99.90;;;;;;2106464;28;20274;-70
2022/01/08 04:53:46;;;;;;;0.30;0.30;;;0.20;99.90;;;;;;2105907;28;20688;-70
2022/01/08 04:54:47;;;;;;;0.37;0.30;;;0.30;99.90;;;;;;2097339;28;20172;-70
2022/01/08 04:55:47;;;;;;;0.50;0.27;;;0.30;99.90;;;;;;2105828;28;20174;-69
2022/01/08 04:56:48;;;;;;;0.30;0.30;;;0.30;99.90;;;;;;2105800;28;20193;-70
2022/01/08 04:57:49;;;;;;;0.37;0.37;;;0.30;99.90;;;;;;2106419;28;20178;-69
2022/01/08 04:58:50;;;;;;;0.30;0.30;;;0.30;99.90;;;;;;2106365;28;20232;-69
2022/01/08 04:59:50;;;;;;;0.30;0.30;;;0.30;99.90;;;;;;2105647;28;20433;-69
2022/01/08 05:00:51;;;;;;;0.33;0.33;;;0.30;99.90;;;;;;2105646;28;20745;-70
2022/01/08 05:01:52;;;;;;;0.30;0.30;;;0.30;99.90;;;;;;2105856;28;20677;-69
2022/01/08 05:02:52;;;;;;;1.13;0.30;;;0.30;99.90;;;;;;2105839;28;20266;-69
2022/01/08 05:03:53;;;;;;;0.20;0.20;;;0.30;99.90;;;;;;2105698;28;20184;-69
2022/01/08 05:04:54;;;;;;;0.30;0.30;;;0.20;99.90;;;;;;2105512;28;20738;-69
2022/01/08 05:05:55;;;;;;;0.30;0.30;;;0.30;99.90;;;;;;2105789;28;20175;-71
2022/01/08 05:06:55;;;;;;;0.37;0.30;;;0.20;99.90;;;;;;2105617;28;20189;-69
2022/01/08 05:07:56;;;;;;;0.30;0.30;;;0.20;99.90;;;;;;2105732;28;20710;-69
2022/01/08 05:08:57;;;;;;;0.43;0.43;;;0.20;99.90;;;;;;2105674;28;20900;-71
2022/01/08 05:09:58;;;;;;;0.30;0.30;;;0.20;99.90;;;;;;2105672;28;20174;-69
2022/01/08 05:10:58;;;;;;;0.30;0.30;;;0.20;99.90;;;;;;2106355;28;20622;-69
2022/01/08 05:11:59;;;;;;;0.20;0.20;;;0.20;99.90;;;;;;2106168;28;20221;-69
2022/01/08 05:13:04;;;;;;;0.20;0.20;;;0.30;99.90;;;;;;2105758;28;20193;-69
2022/01/08 05:14:05;;;;;;;0.30;0.30;;;0.20;99.90;;;;;;2105788;28;20175;-69
2022/01/08 05:15:07;;;;;;;0.63;0.50;;;0.20;99.90;;;;;;2105692;28;20738;-69
2022/01/08 05:16:09;;;;;;;0.30;0.30;;;0.20;99.90;;;;;;2105469;28;20187;-69
2022/01/08 05:17:10;;;;;;;0.32;0.30;;;0.20;99.90;;;;;;2105520;28;20179;-71
2022/01/08 05:18:11;;;;;;;0.50;0.40;;;0.10;99.90;;;;;;2105697;28;20208;-70
2022/01/08 05:19:21;;;;;;;0.40;0.20;;;0.10;99.90;;;;;;2105708;28;20670;-69
2022/01/08 05:20:22;;;;;;;0.30;0.30;;;0.00;99.90;;;;;;2106336;28;20172;-70
2022/01/08 05:21:26;;;;;;;0.40;0.40;;;0.00;99.90;;;;;;2105686;28;20661;-69
2022/01/08 05:22:29;;;;;;;0.45;0.30;;;0.00;99.90;;;;;;2105600;28;20288;-69
2022/01/08 05:23:30;;;;;;;0.38;0.35;;;0.00;99.90;;;;;;2106197;28;20198;-69
2022/01/08 05:24:31;;;;;;;0.30;0.30;;;0.00;99.90;;;;;;2106113;28;20262;-69
2022/01/08 05:25:33;;;;;;;3.20;0.43;;;0.00;99.90;;;;;;2097241;28;20171;-69
2022/01/08 05:26:33;;;;;;;0.30;0.30;;;0.00;99.90;;;;;;2097581;28;20199;-69
2022/01/08 05:27:34;;;;;;;0.40;0.40;;;0.00;99.90;;;;;;2106242;28;20179;-69
2022/01/08 05:28:35;;;;;;;0.50;0.50;;;-0.10;99.90;;;;;;2106109;28;20419;-69
2022/01/08 05:29:35;;;;;;;0.30;0.30;;;0.00;99.90;;;;;;2106320;28;20186;-69
2022/01/08 05:30:36;;;;;;;0.27;0.27;;;0.00;99.90;;;;;;2106251;28;20175;-69
2022/01/08 05:31:37;;;;;;;0.50;0.50;;;0.00;99.90;;;;;;2106194;28;20186;-69
2022/01/08 05:32:38;;;;;;;0.80;0.50;;;-0.10;99.90;;;;;;2106263;28;20666;-69
2022/01/08 05:33:38;;;;;;;0.30;0.30;;;0.00;99.90;;;;;;2106177;28;20179;-70
2022/01/08 05:34:39;;;;;;;0.30;0.30;;;-0.10;99.90;;;;;;2105430;28;20179;-69
2022/01/08 05:35:40;;;;;;;0.30;0.30;;;-0.10;99.90;;;;;;2105676;28;20705;-69
2022/01/08 05:36:41;;;;;;;0.82;0.68;;;-0.10;99.90;;;;;;2105458;28;20266;-69
2022/01/08 05:37:42;;;;;;;0.20;0.20;;;-0.20;99.90;;;;;;2105632;28;20179;-69
2022/01/08 05:38:43;;;;;;;0.50;0.30;;;-0.20;99.90;;;;;;2106185;28;20186;-69
2022/01/08 05:39:45;;;;;;;0.50;0.40;;;-0.20;99.90;;;;;;2106276;28;20654;-69
2022/01/08 05:40:46;;;;;;;0.30;0.30;;;-0.20;99.90;;;;;;2106205;28;20614;-69
2022/01/08 05:41:47;;;;;;;0.30;0.30;;;-0.20;99.90;;;;;;2105475;28;20185;-70
2022/01/08 05:42:48;;;;;;;0.30;0.30;;;-0.30;99.90;;;;;;2105580;28;20182;-69
2022/01/08 05:43:49;;;;;;;0.40;0.40;;;-0.30;99.90;;;;;;2106052;28;20171;-69